Pittsburg, NH (03592)

6:57 AM EST on December 11, 2016 (GMT -0500)
Pittsburg village | | Change Station
Active Advisory: Winter Weather Advisory

Elev 1362 ft 45.05 °N, 71.39 °W | Updated 2 minutes ago

Mostly Cloudy
Mostly Cloudy
-0.2 °F
Feels Like 0 °F
N
0.0
Wind Variable Wind from West
Gusts 0.0 mph

Today
High -- | Low -- °F
--% Chance of Precip.
Yesterday
High -- | Low -- °F
Precip. -- in
Pressure 30.47 in
Visibility 10.0 miles
Clouds Few 2700 ft
Windchill 0 °F
Dew Point -4 °F
Humidity 82%
Rainfall 0.00 in
Snow Depth Not available.
7:14 AM 4:03 PM
Waxing Gibbous, 91% visible
METAR KBML 111152Z AUTO 00000KT 10SM FEW027 M19/M23 A3037 RMK AO2 SLP316 60000 T11941233 11167 21217 53010
Pressure 30.47 in
Visibility 10.0 miles
Clouds Few 2700 ft
Windchill 0 °F
Dew Point -4 °F
Humidity 82%
Rainfall 0.00 in
Snow Depth Not available.
7:14 AM 4:03 PM
Waxing Gibbous, 91% visible
METAR KBML 111152Z AUTO 00000KT 10SM FEW027 M19/M23 A3037 RMK AO2 SLP316 60000 T11941233 11167 21217 53010

10-Day Weather Forecast

Almanac

Astronomy

Dec. 11, 2016 Rise Set
Actual Time
Civil Twilight
Nautical Twilight
Astronomical Twilight
Moon
Length of Visible Light
Length of Day
Tomorrow will be .
, % of the Moon is Illuminated

Today's Extremes

State Highs State Lows

Community

WunderPhotos

Upload Photos

1,956,710 photos uploaded!

WunderBlog® & News

Nearby

Air Quality

  Air Quality AQ Index Pollutant
Not available.

Snow Depth

Station Depth Elevation

Earthquake Activity

City Distance Mag. Time & Date
Minimum magnitude displayed is 2.5.

Coastal Water Temperatures

Place Temperature

Stations

Nearby Weather Stations

Station Location Temp. Windchill Dew Point Humidity Wind Precip. Elev Updated Type
                   

Watches & Warnings

Winter Weather Advisory
Issued: 3:25 AM EST Dec. 11, 2016 – National Weather Service

... Winter Weather Advisory in effect from 9 PM this evening to
7 PM EST Monday...

The National Weather Service in gray has issued a Winter Weather
Advisory for snow... which is in effect from 9 PM this evening to
7 PM EST Monday.

* Hazard types... snow.

* Accumulations... 3 to 6 inches of snow.

* Timing... snow will begin this evening and continue through
Monday morning.

* Impacts... snow covered and slippery roads.

* Winds... southeast 5 to 10 mph.

* Temperatures... in the mid 20s.

Precautionary/preparedness actions...

A Winter Weather Advisory for snow means that periods of snow
will cause primarily travel difficulties. Be prepared for snow
covered roads and limited visibilities... and use caution while
driving.

For a more precise forecast for your specific location... go to
www.Weather.Gov/gray.